Matsumaru No.12 — JI3645 — position and weather

sailwx.info

Track history (hours):
 
Tides and Currents Weather Stations Pressure Air Temp Water Temp Dewpoint Dewpoint Depression Visibility Wind Speed Wind Dir Waves Ship Positions

Matsumaru No.12

Last reported at 2017-Sep-21 13:03 UTC. Time now 2017-Sep-23 07:19 UTC.
Position N 34°54' E 139°27'.

Length 85 m; draft 6.2 m.

Type: Tanker. MMSI: 431300697.

Date/timePositionNaut miles runAvg speedWind from/ knotsBaromVisibWave heightAir tempDewpointWater temp
2017-Sep-21 13:03N 34°54' E 139°27'210.6
2017-Sep-21 12:53N 34°55' E 139°29'410.8
2017-Sep-21 12:30N 34°58' E 139°32'612.2
2017-Sep-21 12:00N 35°03' E 139°37'612.4
2017-Sep-21 11:30N 35°07' E 139°43'612.5
2017-Sep-21 11:00N 35°13' E 139°46'611.9
2017-Sep-21 10:30N 35°18' E 139°44'612.1
2017-Sep-21 10:00N 35°24' E 139°43'612.5
2017-Sep-21 09:30N 35°28' E 139°49'612.3
2017-Sep-21 09:00N 35°31' E 139°55'5 0.5
2017-Sep-20 22:34N 35°32' E 140°01'0 0.1
2017-Sep-20 22:28N 35°32' E 140°01'4 6.5
2017-Sep-20 21:55N 35°31' E 139°57'511.7
2017-Sep-20 21:30N 35°29' E 139°52'612.2
2017-Sep-20 21:00N 35°25' E 139°47'611.9
2017-Sep-20 20:30N 35°19' E 139°44'612.0
2017-Sep-20 20:00N 35°14' E 139°47'612.2
2017-Sep-20 19:30N 35°08' E 139°45'612.6
2017-Sep-20 19:00N 35°03' E 139°41'712.9
2017-Sep-20 18:30N 34°59' E 139°34'233 4.7
2017-Sep-18 16:42N 34°01' E 134°60'314.6
2017-Sep-18 16:30N 34°04' E 134°60'714.2
2017-Sep-18 16:00N 34°11' E 134°59'815.3
2017-Sep-18 15:27N 34°20' E 134°59'714.6
2017-Sep-18 15:00N 34°26' E 135°00'714.8
2017-Sep-18 14:30N 34°33' E 135°02'510.1
2017-Sep-18 14:00N 34°36' E 134°57'  
2017-Sep-15 12:11N 34°37' E 134°57'410.4
2017-Sep-15 11:51N 34°37' E 135°01'411.6
2017-Sep-15 11:30N 34°35' E 135°05'612.0
2017-Sep-15 11:00N 34°29' E 135°04'1412.1
2017-Sep-15 09:52N 34°16' E 134°59'412.6
2017-Sep-15 09:30N 34°11' E 134°60'712.4
2017-Sep-15 08:56N 34°04' E 135°01'2 0.0
2017-Sep-13 13:32N 34°03' E 134°60'112.7
2017-Sep-13 13:27N 34°04' E 134°60'613.1
2017-Sep-13 13:00N 34°09' E 134°59'914.7
2017-Sep-13 12:25N 34°18' E 134°59'614.0
2017-Sep-13 12:00N 34°24' E 135°00'714.6
2017-Sep-13 11:30N 34°31' E 135°02'612.9
2017-Sep-13 11:00N 34°37' E 134°60'  
Track history (hours):
 
Tides and Currents Weather Stations Pressure Air Temp Water Temp Dewpoint Dewpoint Depression Visibility Wind Speed Wind Dir Waves Ship Positions

Matsumaru No.12

Last reported at 2017-Sep-21 13:03 UTC. Time now 2017-Sep-23 07:19 UTC.
Position N 34°54' E 139°27'.

Length 85 m; draft 6.2 m.

Type: Tanker. MMSI: 431300697.

Date/timePositionNaut miles runAvg speedWind from/ knotsBaromVisibWave heightAir tempDewpointWater temp
2017-Sep-21 13:03N 34°54' E 139°27'210.6
2017-Sep-21 12:53N 34°55' E 139°29'410.8
2017-Sep-21 12:30N 34°58' E 139°32'612.2
2017-Sep-21 12:00N 35°03' E 139°37'612.4
2017-Sep-21 11:30N 35°07' E 139°43'612.5
2017-Sep-21 11:00N 35°13' E 139°46'611.9
2017-Sep-21 10:30N 35°18' E 139°44'612.1
2017-Sep-21 10:00N 35°24' E 139°43'612.5
2017-Sep-21 09:30N 35°28' E 139°49'612.3
2017-Sep-21 09:00N 35°31' E 139°55'5 0.5
2017-Sep-20 22:34N 35°32' E 140°01'0 0.1
2017-Sep-20 22:28N 35°32' E 140°01'4 6.5
2017-Sep-20 21:55N 35°31' E 139°57'511.7
2017-Sep-20 21:30N 35°29' E 139°52'612.2
2017-Sep-20 21:00N 35°25' E 139°47'611.9
2017-Sep-20 20:30N 35°19' E 139°44'612.0
2017-Sep-20 20:00N 35°14' E 139°47'612.2
2017-Sep-20 19:30N 35°08' E 139°45'612.6
2017-Sep-20 19:00N 35°03' E 139°41'712.9
2017-Sep-20 18:30N 34°59' E 139°34'233 4.7
2017-Sep-18 16:42N 34°01' E 134°60'314.6
2017-Sep-18 16:30N 34°04' E 134°60'714.2
2017-Sep-18 16:00N 34°11' E 134°59'815.3
2017-Sep-18 15:27N 34°20' E 134°59'714.6
2017-Sep-18 15:00N 34°26' E 135°00'714.8
2017-Sep-18 14:30N 34°33' E 135°02'510.1
2017-Sep-18 14:00N 34°36' E 134°57'  
2017-Sep-15 12:11N 34°37' E 134°57'410.4
2017-Sep-15 11:51N 34°37' E 135°01'411.6
2017-Sep-15 11:30N 34°35' E 135°05'612.0
2017-Sep-15 11:00N 34°29' E 135°04'1412.1
2017-Sep-15 09:52N 34°16' E 134°59'412.6
2017-Sep-15 09:30N 34°11' E 134°60'712.4
2017-Sep-15 08:56N 34°04' E 135°01'2 0.0
2017-Sep-13 13:32N 34°03' E 134°60'112.7
2017-Sep-13 13:27N 34°04' E 134°60'613.1
2017-Sep-13 13:00N 34°09' E 134°59'914.7
2017-Sep-13 12:25N 34°18' E 134°59'614.0
2017-Sep-13 12:00N 34°24' E 135°00'714.6
2017-Sep-13 11:30N 34°31' E 135°02'612.9
2017-Sep-13 11:00N 34°37' E 134°60'  

Dump ship's entire track history